createdAt,value
2022-09-09T00:01:02.248Z,11.32
2022-09-09T00:03:39.602Z,7.55
2022-09-09T00:06:17.951Z,10.63
2022-09-09T00:08:56.377Z,8.63
2022-09-09T00:11:37.736Z,11.07
2022-09-09T00:14:15.699Z,10.50
2022-09-09T00:16:48.863Z,11.45
2022-09-09T00:19:25.283Z,10.45
2022-09-09T00:22:02.598Z,7.18
2022-09-09T00:24:37.466Z,8.38
2022-09-09T00:27:11.120Z,11.80
2022-09-09T00:32:17.074Z,8.15
2022-09-09T00:34:52.247Z,6.80
2022-09-09T00:37:24.832Z,7.28
2022-09-09T00:39:57.882Z,9.20
2022-09-09T00:42:28.027Z,11.98
2022-09-09T00:45:03.902Z,10.43
2022-09-09T00:47:45.723Z,7.20
2022-09-09T00:50:35.122Z,9.13
2022-09-09T00:53:19.845Z,10.63
2022-09-09T00:55:56.147Z,7.88
2022-09-09T00:58:24.300Z,9.18
2022-09-09T01:00:57.266Z,8.02
2022-09-09T01:03:36.016Z,7.68
2022-09-09T01:06:15.308Z,9.23
2022-09-09T01:09:12.856Z,8.13
2022-09-09T01:11:52.246Z,5.93
2022-09-09T01:14:32.116Z,7.55
2022-09-09T01:17:06.936Z,6.68
2022-09-09T01:19:47.608Z,10.63
2022-09-09T01:22:24.888Z,10.45
2022-09-09T01:25:14.806Z,7.13
2022-09-09T01:27:45.674Z,7.63
2022-09-09T01:30:16.069Z,8.23
2022-09-09T01:32:47.018Z,8.35
2022-09-09T01:35:30.173Z,6.47
2022-09-09T01:37:58.792Z,7.77
2022-09-09T01:40:28.113Z,8.85
2022-09-09T01:42:58.533Z,9.35
2022-09-09T01:45:27.847Z,8.07
2022-09-09T01:47:56.099Z,9.20
2022-09-09T01:50:24.490Z,8.40
2022-09-09T01:52:57.752Z,8.38
2022-09-09T01:55:31.698Z,11.27
2022-09-09T01:58:22.977Z,7.60
2022-09-09T02:00:58.842Z,8.40
2022-09-09T02:03:30.307Z,9.25
2022-09-09T02:06:07.948Z,9.13
2022-09-09T02:08:42.618Z,9.30
2022-09-09T02:11:15.698Z,7.95
2022-09-09T02:13:47.885Z,11.48
2022-09-09T02:16:22.189Z,9.40
2022-09-09T02:18:54.001Z,10.40
2022-09-09T02:21:23.696Z,9.43
2022-09-09T02:23:57.511Z,9.60
2022-09-09T02:26:27.847Z,9.25
2022-09-09T02:29:02.004Z,9.43
2022-09-09T02:31:30.613Z,7.43
2022-09-09T02:34:02.352Z,11.70
2022-09-09T02:36:36.272Z,11.35
2022-09-09T02:39:09.724Z,12.18
2022-09-09T02:41:40.352Z,11.98
2022-09-09T02:44:13.622Z,11.02
2022-09-09T02:47:13.956Z,10.95
2022-09-09T02:49:50.696Z,8.63
2022-09-09T02:52:24.004Z,12.13
2022-09-09T02:54:56.891Z,11.00
2022-09-09T02:57:28.863Z,10.57
2022-09-09T02:59:59.946Z,11.30
2022-09-09T03:02:28.964Z,14.15
2022-09-09T03:04:57.385Z,13.73
2022-09-09T03:07:26.174Z,11.98
2022-09-09T03:09:56.091Z,12.68
2022-09-09T03:12:24.221Z,10.65
2022-09-09T03:14:53.117Z,12.93
2022-09-09T03:17:22.805Z,12.07
2022-09-09T03:19:53.540Z,11.23
2022-09-09T03:22:22.329Z,14.77
2022-09-09T03:24:50.507Z,12.50
2022-09-09T03:27:19.010Z,14.63
2022-09-09T03:29:47.549Z,10.68
2022-09-09T03:32:16.630Z,11.70
2022-09-09T03:34:50.693Z,13.13
2022-09-09T03:37:19.919Z,9.88
2022-09-09T03:39:48.528Z,11.13
2022-09-09T03:42:19.941Z,13.65
2022-09-09T03:44:50.921Z,13.43
2022-09-09T03:47:20.625Z,18.92
2022-09-09T03:49:50.772Z,13.77
2022-09-09T03:52:23.527Z,11.27
2022-09-09T03:54:52.640Z,14.85
2022-09-09T03:57:20.866Z,13.60
2022-09-09T03:59:49.192Z,11.38
2022-09-09T04:02:17.931Z,13.40
2022-09-09T04:04:46.347Z,17.48
2022-09-09T04:07:16.943Z,17.58
2022-09-09T04:09:45.902Z,14.52
2022-09-09T04:12:14.319Z,15.57
2022-09-09T04:14:42.900Z,13.65
2022-09-09T04:17:11.207Z,12.48
2022-09-09T04:22:23.757Z,12.05
2022-09-09T04:24:52.000Z,14.18
2022-09-09T04:27:20.153Z,13.05
2022-09-09T04:29:48.752Z,16.08
2022-09-09T04:32:16.924Z,15.52
2022-09-09T04:34:46.026Z,15.02
2022-09-09T04:37:15.209Z,14.95
2022-09-09T04:39:45.812Z,17.00
2022-09-09T04:42:14.254Z,17.08
2022-09-09T04:44:43.183Z,18.75
2022-09-09T04:47:11.903Z,16.88
2022-09-09T04:49:40.429Z,13.07
2022-09-09T04:52:09.111Z,11.68
2022-09-09T04:54:37.467Z,15.13
2022-09-09T04:57:08.041Z,14.50
2022-09-09T04:59:36.460Z,13.38
2022-09-09T05:02:05.095Z,13.10
2022-09-09T05:04:34.241Z,15.25
2022-09-09T05:07:02.790Z,14.02
2022-09-09T05:09:31.186Z,15.00
2022-09-09T05:11:59.987Z,15.75
2022-09-09T05:14:29.745Z,12.35
2022-09-09T05:16:59.103Z,13.77
2022-09-09T05:19:27.403Z,18.80
2022-09-09T05:21:55.960Z,14.10
2022-09-09T05:24:24.752Z,13.45
2022-09-09T05:26:53.128Z,14.25
2022-09-09T05:29:21.532Z,16.50
2022-09-09T05:31:51.484Z,13.70
2022-09-09T05:34:20.580Z,14.48
2022-09-09T05:36:49.262Z,14.48
2022-09-09T05:39:17.696Z,16.63
2022-09-09T05:41:46.174Z,12.82
2022-09-09T05:44:14.975Z,16.05
2022-09-09T05:46:43.698Z,12.82
2022-09-09T05:49:14.071Z,12.88
2022-09-09T05:51:43.988Z,12.38
2022-09-09T05:54:14.721Z,16.17
2022-09-09T05:56:43.407Z,13.88
2022-09-09T05:59:12.607Z,17.38
2022-09-09T06:01:42.396Z,13.25
2022-09-09T06:04:12.580Z,14.45
2022-09-09T06:06:43.199Z,12.48
2022-09-09T06:09:12.733Z,11.52
2022-09-09T06:11:42.219Z,13.60
2022-09-09T06:14:11.456Z,14.32
2022-09-09T06:16:40.086Z,13.73
2022-09-09T06:19:08.511Z,15.55
2022-09-09T06:21:39.206Z,17.08
2022-09-09T06:24:08.779Z,11.57
2022-09-09T06:26:38.915Z,11.27
2022-09-09T06:29:07.496Z,12.63
2022-09-09T06:31:38.052Z,17.95
2022-09-09T06:34:09.156Z,12.82
2022-09-09T06:36:41.070Z,13.75
2022-09-09T06:39:14.770Z,11.00
2022-09-09T06:41:44.666Z,10.50
2022-09-09T06:44:13.975Z,9.68
2022-09-09T06:46:42.395Z,14.35
2022-09-09T06:49:11.320Z,12.73
2022-09-09T06:51:44.149Z,14.45
2022-09-09T06:54:13.739Z,11.93
2022-09-09T06:56:44.354Z,14.27
2022-09-09T06:59:13.738Z,14.25
2022-09-09T07:01:44.965Z,15.48
2022-09-09T07:04:14.678Z,11.32
2022-09-09T07:06:47.098Z,10.45
2022-09-09T07:09:17.720Z,12.25
2022-09-09T07:11:47.726Z,13.75
2022-09-09T07:14:16.567Z,11.35
2022-09-09T07:16:45.281Z,13.05
2022-09-09T07:19:15.541Z,7.32
2022-09-09T07:21:46.481Z,13.15
2022-09-09T07:24:15.201Z,12.38
2022-09-09T07:26:44.031Z,12.43
2022-09-09T07:29:18.515Z,9.90
2022-09-09T07:31:49.536Z,11.65
2022-09-09T07:34:18.302Z,11.88
2022-09-09T07:36:48.109Z,13.15
2022-09-09T07:39:18.544Z,11.30
2022-09-09T07:41:48.657Z,14.00
2022-09-09T07:44:19.393Z,12.05
2022-09-09T07:46:48.634Z,12.60
2022-09-09T07:49:22.900Z,11.60
2022-09-09T07:51:57.799Z,12.88
2022-09-09T07:54:27.385Z,10.60
2022-09-09T07:56:55.862Z,12.65
2022-09-09T07:59:25.251Z,11.20
2022-09-09T08:01:56.095Z,12.65
2022-09-09T08:04:26.340Z,11.68
2022-09-09T08:06:59.442Z,15.55
2022-09-09T08:09:30.134Z,13.30
2022-09-09T08:11:59.380Z,11.98
2022-09-09T08:14:28.069Z,11.55
2022-09-09T08:16:57.261Z,8.77
2022-09-09T08:19:25.743Z,9.90
2022-09-09T08:21:55.229Z,13.88
2022-09-09T08:24:25.167Z,10.38
2022-09-09T08:26:54.603Z,13.40
2022-09-09T08:29:22.965Z,11.25
2022-09-09T08:31:53.987Z,9.18
2022-09-09T08:34:23.017Z,11.13
2022-09-09T08:36:52.815Z,11.55
2022-09-09T08:39:22.805Z,12.35
2022-09-09T08:42:26.470Z,9.93
2022-09-09T08:45:20.357Z,12.03
2022-09-09T08:48:02.838Z,11.05
2022-09-09T08:50:35.008Z,9.35
2022-09-09T08:53:06.986Z,7.95
2022-09-09T08:55:44.035Z,10.68
2022-09-09T08:58:21.146Z,10.45
2022-09-09T09:01:20.227Z,8.93
2022-09-09T09:03:59.235Z,12.30
2022-09-09T09:06:42.303Z,9.48
2022-09-09T09:09:19.288Z,10.13
2022-09-09T09:11:51.774Z,9.00
2022-09-09T09:14:25.145Z,8.60
2022-09-09T09:16:57.708Z,11.40
2022-09-09T09:19:27.696Z,10.70
2022-09-09T09:22:04.193Z,11.18
2022-09-09T09:24:44.464Z,9.55
2022-09-09T09:27:16.316Z,12.15
2022-09-09T09:30:18.169Z,8.82
2022-09-09T09:32:38.501Z,10.13
2022-09-09T09:35:14.665Z,9.15
2022-09-09T09:40:35.495Z,11.05
2022-09-09T09:43:09.076Z,7.47
2022-09-09T09:48:34.819Z,9.80
2022-09-09T09:51:09.892Z,5.80
2022-09-09T09:53:40.978Z,7.63
2022-09-09T09:56:12.732Z,8.63
2022-09-09T09:58:53.001Z,7.22
2022-09-09T10:01:26.758Z,7.78
2022-09-09T10:03:56.351Z,6.65
2022-09-09T10:06:35.528Z,8.35
2022-09-09T10:09:08.576Z,8.90
2022-09-09T10:11:51.274Z,8.88
2022-09-09T10:14:23.313Z,6.97
2022-09-09T10:17:12.608Z,7.43
2022-09-09T10:19:48.725Z,8.77
2022-09-09T10:22:29.792Z,8.63
2022-09-09T10:25:17.178Z,9.13
2022-09-09T10:28:03.944Z,11.55
2022-09-09T10:30:44.882Z,8.38
2022-09-09T10:33:24.730Z,6.90
2022-09-09T10:35:59.372Z,6.80
2022-09-09T10:38:32.764Z,7.10
2022-09-09T10:41:15.333Z,7.50
2022-09-09T10:44:28.633Z,7.50
2022-09-09T10:47:29.451Z,6.10
2022-09-09T10:50:38.089Z,7.35
2022-09-09T10:53:26.020Z,7.30
2022-09-09T10:55:59.660Z,5.95
2022-09-09T11:01:04.409Z,3.85
2022-09-09T11:03:35.524Z,6.38
2022-09-09T11:06:09.013Z,5.57
2022-09-09T11:08:40.512Z,4.90
2022-09-09T11:11:15.636Z,6.00
2022-09-09T11:13:52.693Z,6.22
2022-09-09T11:16:28.189Z,5.88
2022-09-09T11:19:00.919Z,7.25
2022-09-09T11:21:35.853Z,6.43
2022-09-09T11:24:10.854Z,7.53
2022-09-09T11:26:42.174Z,8.65
2022-09-09T11:29:29.682Z,5.70
2022-09-09T11:32:09.596Z,7.53
2022-09-09T11:34:50.880Z,7.38
2022-09-09T11:37:35.756Z,7.78
2022-09-09T11:40:16.166Z,8.10
2022-09-09T11:42:44.697Z,5.93
2022-09-09T11:45:22.803Z,4.80
2022-09-09T11:47:56.210Z,8.55
2022-09-09T11:50:37.245Z,4.72
2022-09-09T11:53:25.934Z,5.88
2022-09-09T11:56:09.597Z,5.70
2022-09-09T11:58:43.814Z,6.93
2022-09-09T12:01:31.124Z,5.50
2022-09-09T12:04:38.445Z,6.55
2022-09-09T12:07:25.733Z,5.75
2022-09-09T12:10:01.052Z,5.80
2022-09-09T12:12:33.188Z,6.43
2022-09-09T12:15:29.125Z,5.40
2022-09-09T12:18:03.289Z,8.43
2022-09-09T12:20:37.280Z,6.05
2022-09-09T12:23:27.911Z,6.90
2022-09-09T12:26:25.770Z,10.52
2022-09-09T12:29:02.049Z,5.75
2022-09-09T12:31:40.209Z,7.15
2022-09-09T12:34:19.265Z,6.18
2022-09-09T12:36:53.959Z,6.63
2022-09-09T12:39:29.534Z,5.03
2022-09-09T12:41:59.781Z,7.60
2022-09-09T12:44:30.475Z,4.85
2022-09-09T12:47:01.545Z,8.30
2022-09-09T12:49:35.515Z,7.32
2022-09-09T12:52:07.026Z,4.05
2022-09-09T12:54:37.586Z,10.48
2022-09-09T12:57:07.933Z,7.22
2022-09-09T12:59:41.663Z,5.30
2022-09-09T13:02:21.320Z,4.75
2022-09-09T13:04:51.658Z,7.80
2022-09-09T13:07:20.977Z,6.50
2022-09-09T13:09:50.783Z,5.70
2022-09-09T13:12:23.706Z,5.63
2022-09-09T13:14:56.201Z,5.07
2022-09-09T13:17:26.257Z,7.82
2022-09-09T13:19:56.844Z,4.40
2022-09-09T13:22:31.931Z,4.70
2022-09-09T13:25:07.035Z,5.13
2022-09-09T13:27:40.759Z,6.43
2022-09-09T13:30:31.386Z,3.53
2022-09-09T13:33:04.590Z,4.38
2022-09-09T13:35:33.773Z,5.60
2022-09-09T13:38:09.823Z,4.78
2022-09-09T13:40:39.718Z,6.38
2022-09-09T13:43:23.840Z,10.20
2022-09-09T13:46:02.399Z,4.85
2022-09-09T13:48:31.093Z,5.32
2022-09-09T13:51:01.703Z,6.63
2022-09-09T13:53:31.603Z,3.78
2022-09-09T13:56:00.918Z,5.70
2022-09-09T13:58:31.208Z,4.50
2022-09-09T14:01:00.035Z,5.82
2022-09-09T14:03:28.609Z,4.18
2022-09-09T14:05:56.988Z,5.43
2022-09-09T14:08:29.926Z,6.28
2022-09-09T14:10:59.492Z,5.10
2022-09-09T14:13:27.939Z,4.50
2022-09-09T14:15:57.971Z,5.13
2022-09-09T14:18:26.746Z,3.97
2022-09-09T14:20:55.087Z,6.43
2022-09-09T14:23:24.980Z,7.50
2022-09-09T14:25:53.893Z,6.45
2022-09-09T14:28:34.307Z,3.95
2022-09-09T14:31:12.038Z,4.70
2022-09-09T14:33:40.376Z,5.05
2022-09-09T14:36:09.217Z,4.20
2022-09-09T14:38:42.764Z,5.60
2022-09-09T14:43:46.732Z,6.90
2022-09-09T14:46:18.337Z,5.07
2022-09-09T14:48:49.719Z,3.88
2022-09-09T14:51:20.594Z,5.18
2022-09-09T14:53:49.241Z,6.72
2022-09-09T14:56:19.815Z,5.93
2022-09-09T14:58:48.740Z,5.07
2022-09-09T15:01:21.669Z,4.13
2022-09-09T15:03:53.173Z,6.63
2022-09-09T15:06:22.987Z,5.72
2022-09-09T15:08:53.376Z,4.82
2022-09-09T15:11:23.332Z,4.93
2022-09-09T15:13:54.378Z,4.07
2022-09-09T15:16:26.226Z,5.63
2022-09-09T15:18:55.950Z,6.38
2022-09-09T15:21:25.876Z,4.35
2022-09-09T15:23:54.449Z,4.93
2022-09-09T15:26:22.669Z,5.00
2022-09-09T15:28:52.029Z,6.47
2022-09-09T15:31:23.719Z,8.43
2022-09-09T15:33:52.889Z,7.30
2022-09-09T15:36:23.731Z,10.57
2022-09-09T15:38:52.567Z,9.73
2022-09-09T15:41:22.542Z,5.05
2022-09-09T15:43:52.950Z,7.35
2022-09-09T15:46:29.022Z,6.90
2022-09-09T15:48:59.562Z,7.50
2022-09-09T15:51:42.290Z,4.40
2022-09-09T15:56:42.835Z,3.65
2022-09-09T15:59:11.278Z,3.17
2022-09-09T16:01:43.510Z,3.17
2022-09-09T16:04:12.334Z,2.38
2022-09-09T16:06:41.228Z,3.25
2022-09-09T16:09:11.256Z,1.08
2022-09-09T16:11:40.854Z,1.38
2022-09-09T16:14:09.954Z,2.83
2022-09-09T16:16:38.532Z,2.40
2022-09-09T16:19:10.894Z,2.22
2022-09-09T16:21:41.016Z,3.33
2022-09-09T16:24:11.092Z,1.63
2022-09-09T16:26:40.850Z,1.50
2022-09-09T16:29:10.015Z,3.70
2022-09-09T16:31:38.901Z,4.60
2022-09-09T16:34:08.995Z,2.83
2022-09-09T16:36:40.243Z,2.85
2022-09-09T16:39:15.575Z,2.75
2022-09-09T16:41:45.825Z,3.00
2022-09-09T16:44:16.649Z,4.43
2022-09-09T16:46:45.934Z,5.13
2022-09-09T16:49:17.119Z,4.05
2022-09-09T16:51:47.977Z,4.43
2022-09-09T16:54:18.342Z,4.35
2022-09-09T16:56:48.841Z,5.93
2022-09-09T16:59:18.937Z,7.38
2022-09-09T17:01:48.993Z,5.40
2022-09-09T17:04:22.088Z,6.80
2022-09-09T17:06:51.674Z,8.00
2022-09-09T17:09:21.269Z,6.43
2022-09-09T17:11:51.785Z,5.25
2022-09-09T17:14:22.082Z,8.60
2022-09-09T17:16:51.137Z,9.52
2022-09-09T17:19:21.289Z,5.85
2022-09-09T17:22:14.820Z,7.60
2022-09-09T17:24:39.707Z,6.68
2022-09-09T17:27:08.353Z,5.43
2022-09-09T17:29:37.188Z,6.90
2022-09-09T17:32:08.260Z,8.32
2022-09-09T17:34:39.098Z,9.18
2022-09-09T17:37:07.450Z,5.47
2022-09-09T17:39:36.618Z,6.07
2022-09-09T17:42:05.459Z,6.88
2022-09-09T17:44:34.315Z,6.00
2022-09-09T17:47:05.059Z,7.15
2022-09-09T17:49:33.537Z,6.88
2022-09-09T17:52:03.333Z,9.38
2022-09-09T17:54:31.617Z,9.68
2022-09-09T17:57:00.617Z,7.22
2022-09-09T17:59:28.872Z,8.23
2022-09-09T18:01:57.951Z,9.38
2022-09-09T18:04:26.821Z,8.18
2022-09-09T18:06:55.748Z,7.97
2022-09-09T18:09:27.682Z,13.55
2022-09-09T18:11:58.785Z,11.45
2022-09-09T18:14:30.498Z,10.57
2022-09-09T18:16:59.603Z,10.98
2022-09-09T18:19:29.105Z,10.13
2022-09-09T18:22:00.335Z,7.95
2022-09-09T18:24:33.007Z,12.18
2022-09-09T18:27:01.441Z,8.65
2022-09-09T18:29:29.979Z,8.52
2022-09-09T18:31:58.414Z,12.55
2022-09-09T18:34:28.985Z,9.57
2022-09-09T18:36:57.631Z,10.00
2022-09-09T18:39:29.418Z,10.63
2022-09-09T18:42:01.752Z,8.90
2022-09-09T18:44:33.147Z,10.35
2022-09-09T18:47:01.934Z,10.32
2022-09-09T18:49:30.490Z,10.50
2022-09-09T18:51:59.465Z,8.13
2022-09-09T18:54:30.454Z,10.35
2022-09-09T18:57:01.600Z,9.77
2022-09-09T18:59:30.665Z,7.10
2022-09-09T19:01:59.065Z,9.80
2022-09-09T19:04:28.249Z,9.98
2022-09-09T19:06:58.964Z,11.60
2022-09-09T19:09:29.868Z,10.18
2022-09-09T19:12:01.112Z,8.23
2022-09-09T19:14:29.986Z,7.55
2022-09-09T19:16:58.339Z,9.38
2022-09-09T19:19:28.955Z,6.40
2022-09-09T19:21:58.267Z,9.20
2022-09-09T19:24:28.882Z,8.18
2022-09-09T19:27:02.001Z,8.10
2022-09-09T19:29:32.803Z,6.85
2022-09-09T19:32:49.325Z,8.85
2022-09-09T19:34:52.198Z,9.82
2022-09-09T19:37:22.675Z,9.32
2022-09-09T19:39:52.219Z,9.73
2022-09-09T19:42:22.256Z,10.20
2022-09-09T19:44:50.937Z,8.15
2022-09-09T19:47:19.522Z,8.40
2022-09-09T19:49:48.100Z,7.80
2022-09-09T19:52:17.369Z,8.82
2022-09-09T19:54:46.091Z,6.88
2022-09-09T19:57:14.987Z,7.05
2022-09-09T19:59:45.102Z,12.95
2022-09-09T20:02:15.910Z,8.40
2022-09-09T20:04:44.886Z,10.38
2022-09-09T20:07:13.653Z,10.48
2022-09-09T20:09:42.198Z,10.32
2022-09-09T20:12:10.581Z,10.02
2022-09-09T20:14:40.013Z,8.20
2022-09-09T20:17:10.639Z,8.90
2022-09-09T20:19:40.147Z,11.38
2022-09-09T20:22:08.526Z,10.75
2022-09-09T20:24:38.355Z,8.02
2022-09-09T20:27:08.336Z,8.63
2022-09-09T20:29:39.472Z,12.57
2022-09-09T20:32:10.620Z,10.57
2022-09-09T20:34:38.923Z,11.52
2022-09-09T20:37:07.482Z,10.32
2022-09-09T20:39:37.240Z,12.45
2022-09-09T20:42:06.089Z,11.15
2022-09-09T20:44:34.763Z,10.57
2022-09-09T20:47:06.706Z,11.70
2022-09-09T20:49:36.743Z,10.30
2022-09-09T20:52:06.098Z,13.60
2022-09-09T20:54:36.267Z,15.15
2022-09-09T20:57:05.005Z,13.52
2022-09-09T20:59:34.865Z,11.90
2022-09-09T21:02:03.664Z,12.00
2022-09-09T21:04:32.789Z,18.60
2022-09-09T21:07:02.624Z,10.10
2022-09-09T21:09:31.188Z,12.65
2022-09-09T21:11:59.947Z,13.90
2022-09-09T21:14:28.552Z,14.98
2022-09-09T21:16:57.952Z,12.15
2022-09-09T21:19:26.570Z,11.07
2022-09-09T21:21:55.239Z,14.18
2022-09-09T21:24:25.064Z,12.05
2022-09-09T21:26:54.785Z,14.75
2022-09-09T21:29:24.192Z,14.80
2022-09-09T21:31:53.152Z,11.27
2022-09-09T21:34:21.951Z,10.85
2022-09-09T21:36:50.387Z,13.77
2022-09-09T21:39:18.661Z,12.15
2022-09-09T21:41:48.583Z,10.95
2022-09-09T21:44:17.282Z,13.07
2022-09-09T21:46:45.423Z,10.43
2022-09-09T21:49:14.377Z,12.60
2022-09-09T21:51:42.809Z,12.75
2022-09-09T21:54:11.100Z,15.88
2022-09-09T21:56:40.114Z,11.45
2022-09-09T21:59:10.345Z,10.30
2022-09-09T22:01:40.558Z,14.38
2022-09-09T22:04:09.215Z,12.73
2022-09-09T22:06:37.586Z,10.23
2022-09-09T22:09:05.988Z,9.70
2022-09-09T22:11:35.233Z,14.07
2022-09-09T22:14:03.483Z,11.77
2022-09-09T22:16:33.340Z,13.23
2022-09-09T22:19:02.583Z,15.13
2022-09-09T22:21:33.626Z,12.60
2022-09-09T22:24:04.251Z,15.00
2022-09-09T22:26:36.442Z,12.77
2022-09-09T22:29:05.826Z,15.32
2022-09-09T22:31:36.576Z,12.98
2022-09-09T22:34:06.585Z,15.68
2022-09-09T22:36:35.167Z,18.08
2022-09-09T22:39:04.052Z,15.10
2022-09-09T22:41:34.187Z,16.48
2022-09-09T22:44:02.656Z,13.13
2022-09-09T22:46:31.360Z,18.58
2022-09-09T22:49:03.623Z,18.15
2022-09-09T22:51:34.348Z,13.10
2022-09-09T22:54:03.421Z,16.02
2022-09-09T22:56:31.712Z,17.90
2022-09-09T22:59:00.139Z,15.02
2022-09-09T23:01:29.481Z,18.40
2022-09-09T23:04:02.017Z,17.67
2022-09-09T23:06:32.003Z,18.60
2022-09-09T23:09:02.221Z,15.95
2022-09-09T23:11:32.527Z,16.52
2022-09-09T23:14:02.520Z,17.05
2022-09-09T23:16:34.084Z,18.70
2022-09-09T23:19:04.029Z,17.13
2022-09-09T23:21:33.332Z,16.90
2022-09-09T23:24:02.396Z,19.67
2022-09-09T23:26:30.863Z,20.10
2022-09-09T23:29:02.488Z,14.77
2022-09-09T23:31:34.286Z,15.15
2022-09-09T23:34:05.046Z,17.25
2022-09-09T23:36:33.682Z,19.13
2022-09-09T23:39:04.479Z,16.67
2022-09-09T23:41:34.117Z,17.55
2022-09-09T23:44:03.873Z,15.57
2022-09-09T23:46:33.654Z,18.73
2022-09-09T23:49:03.939Z,16.48
2022-09-09T23:51:35.069Z,17.50
2022-09-09T23:54:04.875Z,18.27
2022-09-09T23:56:35.200Z,18.13
2022-09-09T23:59:03.589Z,26.55
